Time;durP1;ratioP1;P1;durP2;ratioP2;P2;SDS_P1;SDS_P2;PMS_P1;PMS_P2;Temp;Humidity;BMP_temperature;BMP_pressure;BME280_temperature;BME280_humidity;BME280_pressure;Samples;Min_cycle;Max_cycle;Signal;HPM_P1;HPM_P2
2023/07/07 00:00:23;;;;;;;4.30;3.60;;;;;;;16.11;71.90;98370.78;4969806;28;20641;-84
2023/07/07 00:02:50;;;;;;;4.50;3.60;;;;;;;16.10;72.34;98367.25;4970106;28;20245;-84
2023/07/07 00:05:16;;;;;;;5.23;3.63;;;;;;;16.08;71.95;98367.53;4970032;28;20215;-84
2023/07/07 00:07:44;;;;;;;4.53;3.67;;;;;;;16.05;72.90;98368.66;4970149;28;20234;-84
2023/07/07 00:10:12;;;;;;;5.00;3.70;;;;;;;16.02;73.85;98375.09;4969271;28;20203;-84
2023/07/07 00:12:39;;;;;;;4.03;3.40;;;;;;;16.01;74.65;98372.56;4969825;28;20211;-84
2023/07/07 00:15:06;;;;;;;5.93;3.77;;;;;;;15.98;74.47;98376.34;4969733;28;20211;-84
2023/07/07 00:17:33;;;;;;;4.17;3.50;;;;;;;15.93;75.35;98374.19;4969828;28;20210;-84
2023/07/07 00:20:03;;;;;;;6.30;4.33;;;;;;;15.87;76.20;98380.06;4969707;28;20210;-84
2023/07/07 00:22:31;;;;;;;5.77;3.67;;;;;;;15.82;75.41;98372.47;4969812;28;20269;-84
2023/07/07 00:24:58;;;;;;;4.10;3.27;;;;;;;15.79;75.32;98377.22;4969882;28;20577;-84
2023/07/07 00:27:25;;;;;;;4.33;3.50;;;;;;;15.70;76.44;98372.69;4969688;28;20254;-84
2023/07/07 00:29:52;;;;;;;5.10;3.30;;;;;;;15.68;75.91;98374.63;4969486;28;20219;-84
2023/07/07 00:32:18;;;;;;;4.60;3.20;;;;;;;15.63;75.83;98376.88;4969311;28;20237;-84
2023/07/07 00:34:45;;;;;;;3.77;2.97;;;;;;;15.60;75.58;98372.66;4969354;28;20214;-84
2023/07/07 00:37:11;;;;;;;5.23;3.20;;;;;;;15.52;76.21;98374.28;4969518;28;20210;-84
2023/07/07 00:39:38;;;;;;;4.30;3.47;;;;;;;15.44;76.77;98374.91;4969135;28;20211;-84
2023/07/07 00:42:05;;;;;;;4.37;3.70;;;;;;;15.37;76.63;98373.75;4969368;28;20239;-84
2023/07/07 00:45:05;;;;;;;5.20;3.23;;;;;;;15.27;76.78;98374.63;4969487;28;20219;-84
2023/07/07 00:47:33;;;;;;;5.57;3.80;;;;;;;15.28;76.36;98377.13;4969622;28;20235;-84
2023/07/07 00:50:00;;;;;;;5.23;3.70;;;;;;;15.22;76.75;98376.81;4969276;28;20217;-84
2023/07/07 00:52:26;;;;;;;4.30;3.47;;;;;;;15.20;76.73;98378.75;4969158;28;20235;-84
2023/07/07 00:54:53;;;;;;;5.63;3.60;;;;;;;15.14;77.26;98379.25;4969299;28;20214;-84
2023/07/07 00:57:20;;;;;;;5.23;3.90;;;;;;;15.06;79.42;98387.91;4969119;28;20214;-84
2023/07/07 00:59:48;;;;;;;3.70;3.40;;;;;;;15.01;79.72;98379.47;4969183;28;20222;-84
2023/07/07 01:02:24;;;;;;;5.97;3.97;;;;;;;14.94;80.47;98380.09;4969505;28;20241;-85
2023/07/07 01:04:54;;;;;;;4.20;3.80;;;;;;;14.92;80.39;98392.69;4969464;28;20245;-85
2023/07/07 01:07:26;;;;;;;7.30;4.23;;;;;;;14.94;80.23;98390.72;4969293;28;20234;-85
2023/07/07 01:09:53;;;;;;;6.83;4.23;;;;;;;14.95;79.71;98385.28;4968885;28;20768;-85
2023/07/07 01:12:19;;;;;;;4.97;3.93;;;;;;;14.90;80.30;98402.63;4969158;28;20238;-85
2023/07/07 01:14:49;;;;;;;4.17;3.57;;;;;;;14.78;82.49;98404.44;4969151;28;20223;-85
2023/07/07 01:17:28;;;;;;;4.63;3.70;;;;;;;14.73;83.08;98411.13;4969003;28;20207;-84
2023/07/07 01:20:09;;;;;;;3.87;3.53;;;;;;;14.72;82.71;98404.13;4968860;28;20280;-85
2023/07/07 01:22:59;;;;;;;5.80;3.87;;;;;;;14.69;83.52;98409.69;4970771;28;20206;-84
2023/07/07 01:25:37;;;;;;;5.57;4.07;;;;;;;14.66;84.31;98409.94;4972730;28;20255;-84
2023/07/07 01:28:31;;;;;;;4.37;3.40;;;;;;;14.64;84.47;98412.72;4972273;28;20291;-84
2023/07/07 01:31:02;;;;;;;4.40;4.00;;;;;;;14.62;84.90;98413.81;4972163;28;20249;-84
2023/07/07 01:33:31;;;;;;;6.50;3.83;;;;;;;14.62;85.09;98411.16;4972224;28;20218;-84
2023/07/07 01:35:57;;;;;;;4.97;3.97;;;;;;;14.57;86.06;98410.69;4972231;28;20203;-84
2023/07/07 01:38:34;;;;;;;5.70;4.00;;;;;;;14.55;85.62;98401.97;4972194;28;20245;-84
2023/07/07 01:41:09;;;;;;;4.53;3.67;;;;;;;14.53;85.72;98402.09;4971714;28;20256;-84
2023/07/07 01:43:43;;;;;;;4.37;3.70;;;;;;;14.48;86.21;98403.44;4972370;28;20218;-84
2023/07/07 01:46:19;;;;;;;4.43;3.67;;;;;;;14.45;86.75;98406.34;4972177;28;20211;-84
2023/07/07 01:48:52;;;;;;;4.03;3.63;;;;;;;14.46;87.32;98402.72;4972078;28;20210;-84
2023/07/07 01:51:22;;;;;;;5.13;3.50;;;;;;;14.46;86.75;98408.03;4971700;28;20296;-84
2023/07/07 01:53:51;;;;;;;6.20;3.60;;;;;;;14.41;87.12;98410.19;4971736;28;20217;-84
2023/07/07 01:56:23;;;;;;;5.90;4.00;;;;;;;14.39;87.64;98413.00;4971990;28;20218;-84
2023/07/07 01:58:50;;;;;;;5.33;4.00;;;;;;;14.39;88.31;98406.84;4971802;28;20669;-84
2023/07/07 02:01:19;;;;;;;4.40;3.90;;;;;;;14.36;87.85;98401.78;4971518;28;20230;-84
2023/07/07 02:03:45;;;;;;;4.20;3.73;;;;;;;14.29;88.53;98401.41;4971745;28;20218;-84
2023/07/07 02:06:12;;;;;;;5.07;3.90;;;;;;;14.24;89.67;98397.44;4971562;28;20218;-84
2023/07/07 02:08:38;;;;;;;4.87;3.60;;;;;;;14.25;89.82;98404.44;4971431;28;20713;-84
2023/07/07 02:11:04;;;;;;;4.00;3.53;;;;;;;14.20;89.54;98395.97;4971138;28;20246;-84
2023/07/07 02:13:31;;;;;;;4.33;3.70;;;;;;;14.18;90.07;98398.72;4971677;28;20225;-81
2023/07/07 02:15:57;;;;;;;4.60;3.70;;;;;;;14.18;89.82;98392.56;4971518;28;20214;-81
2023/07/07 02:18:26;;;;;;;4.20;3.80;;;;;;;14.13;90.45;98389.44;4971393;28;20214;-82
2023/07/07 02:20:53;;;;;;;5.43;4.00;;;;;;;14.13;90.69;98389.44;4971248;28;20239;-83
2023/07/07 02:23:19;;;;;;;4.93;3.67;;;;;;;14.13;90.69;98389.44;4971490;28;20222;-83
2023/07/07 02:25:46;;;;;;;4.50;3.50;;;;;;;14.12;90.22;98396.53;4971498;28;20720;-83
2023/07/07 02:28:12;;;;;;;6.37;3.77;;;;;;;14.10;90.59;98389.66;4971251;28;20246;-83
2023/07/07 02:30:38;;;;;;;6.40;3.97;;;;;;;14.10;90.45;98384.34;4971133;28;20241;-83
2023/07/07 02:33:08;;;;;;;6.07;4.20;;;;;;;14.08;90.53;98396.91;4971005;28;20222;-83
2023/07/07 02:35:36;;;;;;;5.57;3.70;;;;;;;14.04;91.19;98391.00;4971488;28;20264;-83
2023/07/07 02:38:02;;;;;;;6.47;3.83;;;;;;;14.00;91.06;98389.53;4971045;28;20344;-83
2023/07/07 02:40:29;;;;;;;4.90;3.70;;;;;;;14.00;91.01;98388.72;4970895;28;20239;-83
2023/07/07 02:42:56;;;;;;;5.53;3.90;;;;;;;14.01;90.48;98385.09;4971060;28;20219;-83
2023/07/07 02:45:22;;;;;;;4.33;3.90;;;;;;;13.97;90.87;98383.63;4971181;28;20835;-83
2023/07/07 02:47:49;;;;;;;4.50;4.10;;;;;;;13.95;91.49;98390.88;4970951;28;20222;-83
2023/07/07 02:50:17;;;;;;;4.30;3.83;;;;;;;13.94;91.73;98392.69;4970884;28;20221;-82
2023/07/07 02:52:45;;;;;;;4.60;3.73;;;;;;;13.94;91.38;98389.19;4970983;28;20732;-82
2023/07/07 02:55:11;;;;;;;4.87;4.13;;;;;;;13.86;92.63;98395.09;4971022;28;20230;-83
2023/07/07 02:57:38;;;;;;;4.20;3.80;;;;;;;13.82;92.11;98392.81;4971027;28;20235;-83
2023/07/07 03:00:09;;;;;;;6.23;4.30;;;;;;;13.76;91.94;98390.63;4970620;28;20211;-83
2023/07/07 03:02:35;;;;;;;5.73;4.23;;;;;;;13.75;91.67;98389.78;4971104;28;20206;-83
2023/07/07 03:05:02;;;;;;;4.77;3.70;;;;;;;13.73;91.86;98390.84;4971033;28;20218;-83
2023/07/07 03:07:28;;;;;;;6.07;4.30;;;;;;;13.74;92.21;98392.56;4970754;28;20694;-83
2023/07/07 03:09:57;;;;;;;4.93;3.77;;;;;;;13.73;91.45;98388.19;4970586;28;20221;-83
2023/07/07 03:12:23;;;;;;;4.00;3.60;;;;;;;13.76;91.28;98387.97;5060820;22;20238;-80
2023/07/07 03:14:53;;;;;;;5.10;4.07;;;;;;;13.76;90.74;98395.94;5074192;28;20215;-81
2023/07/07 03:17:20;;;;;;;5.90;4.20;;;;;;;13.85;90.94;98396.06;5074350;28;20242;-81
2023/07/07 03:19:46;;;;;;;8.33;4.40;;;;;;;13.77;91.29;98397.63;5073119;28;20298;-80
2023/07/07 03:22:13;;;;;;;4.60;3.90;;;;;;;13.71;91.39;98400.75;5072895;28;20581;-79
2023/07/07 03:24:39;;;;;;;5.03;3.93;;;;;;;13.57;92.62;98408.97;5072679;28;20222;-80
2023/07/07 03:27:07;;;;;;;5.83;4.33;;;;;;;13.51;94.09;98412.09;5072471;28;20211;-80
2023/07/07 03:29:34;;;;;;;7.13;4.80;;;;;;;13.46;94.79;98416.88;5072352;28;20211;-80
2023/07/07 03:32:00;;;;;;;8.57;4.67;;;;;;;13.42;95.95;98405.66;5072241;28;20231;-78
2023/07/07 03:34:27;;;;;;;6.07;4.63;;;;;;;13.39;96.29;98411.19;5072318;28;20305;-79
2023/07/07 03:36:53;;;;;;;5.13;4.27;;;;;;;13.37;96.40;98410.47;5072189;28;20211;-80
2023/07/07 03:39:20;;;;;;;6.20;4.50;;;;;;;13.37;96.31;98414.91;5071746;28;20669;-79
2023/07/07 03:41:46;;;;;;;5.17;4.40;;;;;;;13.41;96.33;98419.03;5071966;28;20223;-79
2023/07/07 03:44:15;;;;;;;5.67;4.20;;;;;;;13.48;95.19;98425.56;5071724;28;20208;-79
2023/07/07 03:46:42;;;;;;;4.90;3.93;;;;;;;13.56;95.00;98428.50;5072849;28;20212;-79
2023/07/07 03:49:08;;;;;;;7.87;4.57;;;;;;;13.64;93.59;98429.59;5072220;28;20679;-79
2023/07/07 03:51:36;;;;;;;6.10;4.50;;;;;;;13.74;92.64;98429.75;5072540;28;20318;-80
2023/07/07 03:54:04;;;;;;;4.90;3.87;;;;;;;13.79;91.64;98428.44;5071779;28;20243;-80
2023/07/07 03:56:30;;;;;;;4.00;3.60;;;;;;;13.88;90.08;98427.69;5071755;28;20674;-79
2023/07/07 03:58:57;;;;;;;5.97;4.10;;;;;;;14.00;87.78;98426.75;5071902;28;20231;-80
2023/07/07 04:01:25;;;;;;;5.90;3.97;;;;;;;14.01;87.48;98435.56;5071493;28;20230;-81
2023/07/07 04:03:51;;;;;;;6.87;4.07;;;;;;;14.04;87.59;98433.53;5071903;28;20219;-80
2023/07/07 04:06:19;;;;;;;4.57;3.70;;;;;;;14.04;87.48;98437.97;5071687;28;20278;-80
2023/07/07 04:08:46;;;;;;;4.80;3.90;;;;;;;14.06;88.32;98439.56;5071464;28;20207;-80
2023/07/07 04:11:15;;;;;;;6.30;3.63;;;;;;;14.08;88.44;98442.97;5071063;28;20245;-80
2023/07/07 04:13:42;;;;;;;5.83;4.30;;;;;;;14.16;88.10;98443.19;5071497;28;20207;-80
2023/07/07 04:16:11;;;;;;;4.80;3.67;;;;;;;14.24;87.00;98439.97;5071427;28;20681;-80
2023/07/07 04:18:40;;;;;;;4.43;3.63;;;;;;;14.27;86.71;98442.38;5071457;28;20321;-81
2023/07/07 04:21:10;;;;;;;3.90;3.43;;;;;;;14.33;86.47;98439.22;5071036;28;20242;-80
2023/07/07 04:23:39;;;;;;;4.13;3.70;;;;;;;14.30;86.54;98439.50;5071248;28;20211;-80
2023/07/07 04:26:07;;;;;;;4.93;3.80;;;;;;;14.30;87.13;98434.16;5071851;28;20211;-80
2023/07/07 04:28:35;;;;;;;4.57;3.67;;;;;;;14.31;86.97;98441.19;5071383;28;20206;-76
2023/07/07 04:31:03;;;;;;;4.70;3.73;;;;;;;14.32;87.75;98442.88;5071086;28;20250;-76
2023/07/07 04:33:31;;;;;;;6.27;4.23;;;;;;;14.38;87.81;98445.03;5071412;28;20581;-75
2023/07/07 04:36:01;;;;;;;4.53;3.50;;;;;;;14.43;88.25;98442.88;5071100;28;20633;-77
2023/07/07 04:38:31;;;;;;;5.53;4.03;;;;;;;14.44;89.20;98442.75;5071000;28;20337;-75
2023/07/07 04:41:05;;;;;;;5.10;3.57;;;;;;;14.50;89.09;98452.91;5071027;28;20236;-76
2023/07/07 04:43:32;;;;;;;5.17;3.80;;;;;;;14.54;89.18;98450.84;5071530;28;20272;-78
2023/07/07 04:45:59;;;;;;;4.83;3.47;;;;;;;14.57;90.40;98454.09;5071283;28;20207;-76
2023/07/07 04:48:25;;;;;;;4.77;4.00;;;;;;;14.57;91.77;98454.09;5071222;28;20231;-75
2023/07/07 04:50:52;;;;;;;7.40;4.63;;;;;;;14.63;93.41;98464.25;5070617;28;20228;-77
2023/07/07 04:53:21;;;;;;;6.00;4.30;;;;;;;14.67;95.56;98467.50;5071289;28;20211;-79
2023/07/07 04:55:47;;;;;;;6.37;4.90;;;;;;;14.66;96.63;98465.81;5070957;28;20211;-75
2023/07/07 04:58:14;;;;;;;7.10;4.73;;;;;;;14.69;97.79;98468.22;5074325;28;20231;-78
2023/07/07 05:00:40;;;;;;;5.90;4.87;;;;;;;14.84;98.42;98482.97;5074795;28;20215;-80
2023/07/07 05:03:07;;;;;;;6.20;5.10;;;;;;;14.93;98.55;98476.88;5075069;28;20608;-79
2023/07/07 05:05:36;;;;;;;8.07;5.97;;;;;;;15.08;97.92;98465.81;5075256;28;20207;-77
2023/07/07 05:08:03;;;;;;;7.53;5.70;;;;;;;15.29;97.22;98463.22;5075174;28;20214;-79
2023/07/07 05:10:31;;;;;;;8.50;5.70;;;;;;;15.67;94.54;98452.88;5074851;28;20218;-78
2023/07/07 05:12:57;;;;;;;6.70;5.80;;;;;;;16.25;90.41;98451.28;5074819;28;20227;-79
2023/07/07 05:15:24;;;;;;;6.67;5.63;;;;;;;16.86;85.67;98442.25;5074768;28;20218;-80
2023/07/07 05:17:51;;;;;;;7.13;5.00;;;;;;;17.57;81.48;98443.75;5075008;28;20363;-78
2023/07/07 05:20:18;;;;;;;8.53;5.60;;;;;;;18.18;76.30;98429.84;5074663;28;20211;-81
2023/07/07 05:22:44;;;;;;;8.07;5.60;;;;;;;18.68;73.35;98433.00;5074503;28;20224;-80
2023/07/07 05:25:11;;;;;;;11.33;5.67;;;;;;;19.10;68.57;98416.25;5074815;28;20209;-80
2023/07/07 05:27:39;;;;;;;6.10;4.93;;;;;;;19.45;67.35;98416.28;5074610;28;20216;-78
2023/07/07 05:30:07;;;;;;;6.27;5.37;;;;;;;19.88;65.94;98410.09;5074006;28;20207;-79
2023/07/07 05:32:33;;;;;;;7.40;5.33;;;;;;;20.21;63.78;98414.69;5054538;28;20220;-79
2023/07/07 05:35:00;;;;;;;6.30;4.43;;;;;;;20.54;60.97;98398.59;5054480;28;20208;-79
2023/07/07 05:37:26;;;;;;;5.67;4.57;;;;;;;20.80;58.97;98393.97;5054662;28;20601;-81
2023/07/07 05:39:53;;;;;;;5.50;4.60;;;;;;;20.96;57.30;98383.31;5054297;28;20212;-82
2023/07/07 05:42:19;;;;;;;5.70;4.37;;;;;;;21.06;56.66;98377.78;5054357;28;20238;-80
2023/07/07 05:44:47;;;;;;;5.17;4.33;;;;;;;21.31;56.96;98384.88;5054707;28;20212;-81
2023/07/07 05:47:13;;;;;;;6.77;4.73;;;;;;;21.55;55.72;98380.38;5054770;28;20208;-80
2023/07/07 05:49:40;;;;;;;5.37;4.43;;;;;;;21.89;55.03;98383.72;5054483;28;20288;-80
2023/07/07 05:52:08;;;;;;;5.53;4.50;;;;;;;22.15;54.10;98384.34;5054589;28;20705;-80
2023/07/07 05:54:35;;;;;;;4.90;4.40;;;;;;;22.42;53.12;98375.00;5054609;28;20212;-82
2023/07/07 05:57:02;;;;;;;8.60;4.53;;;;;;;22.61;52.41;98375.47;5054673;28;20211;-81
2023/07/07 05:59:31;;;;;;;6.13;4.70;;;;;;;22.79;51.62;98373.34;5053904;28;20239;-82
2023/07/07 06:01:59;;;;;;;5.90;4.30;;;;;;;22.96;50.94;98366.84;5054469;28;20617;-80
2023/07/07 06:04:25;;;;;;;5.33;3.97;;;;;;;23.10;50.50;98370.66;5054306;28;20218;-81
2023/07/07 06:06:52;;;;;;;6.07;4.20;;;;;;;23.23;49.69;98360.16;5054314;28;20223;-81
2023/07/07 06:09:18;;;;;;;4.57;4.17;;;;;;;23.44;48.80;98352.22;5053485;28;20213;-82
2023/07/07 06:11:47;;;;;;;5.83;3.93;;;;;;;23.50;48.75;98362.28;5053861;28;20726;-80
2023/07/07 06:14:14;;;;;;;6.13;4.60;;;;;;;23.62;47.62;98350.91;5054310;28;20588;-82
2023/07/07 06:16:40;;;;;;;5.23;3.70;;;;;;;23.80;47.32;98359.50;5054147;28;20210;-82
2023/07/07 06:19:08;;;;;;;6.17;3.77;;;;;;;23.95;46.67;98352.28;5054001;28;20565;-81
2023/07/07 06:21:35;;;;;;;3.80;3.40;;;;;;;24.14;46.32;98357.13;5053966;28;20319;-81
2023/07/07 06:24:02;;;;;;;3.60;3.27;;;;;;;24.28;45.90;98359.03;5053777;28;20211;-80
2023/07/07 06:26:28;;;;;;;5.20;3.87;;;;;;;24.31;45.44;98363.22;5053903;28;20208;-83
2023/07/07 06:28:56;;;;;;;4.90;3.63;;;;;;;24.44;44.80;98353.41;5053660;28;20208;-82
2023/07/07 06:31:23;;;;;;;5.57;3.50;;;;;;;24.59;45.00;98361.53;5053497;28;20232;-82
2023/07/07 06:33:50;;;;;;;4.53;3.93;;;;;;;24.77;44.53;98360.13;5053786;28;20244;-82
2023/07/07 06:36:18;;;;;;;5.07;3.33;;;;;;;24.98;43.92;98359.31;5053779;28;20400;-82
2023/07/07 06:38:44;;;;;;;5.43;3.70;;;;;;;25.11;44.21;98357.59;5053571;28;20594;-81
2023/07/07 06:41:12;;;;;;;4.83;3.50;;;;;;;25.34;44.15;98360.16;5053023;28;20326;-81
2023/07/07 06:43:38;;;;;;;5.17;3.23;;;;;;;25.51;44.01;98367.84;5053580;28;20200;-82
2023/07/07 06:46:05;;;;;;;4.07;3.67;;;;;;;25.67;43.11;98383.81;5053469;28;20678;-81
2023/07/07 06:48:31;;;;;;;3.80;3.17;;;;;;;25.83;42.81;98379.97;5053317;28;20219;-81
2023/07/07 06:50:58;;;;;;;4.97;3.10;;;;;;;25.89;42.52;98379.19;5053219;28;20232;-82
2023/07/07 06:53:26;;;;;;;4.18;2.95;;;;;;;25.94;42.32;98376.78;5053437;28;20204;-82
2023/07/07 06:55:52;;;;;;;3.78;3.20;;;;;;;25.91;41.80;98369.88;5053304;28;20204;-81
2023/07/07 06:58:21;;;;;;;4.88;3.25;;;;;;;25.96;42.00;98370.13;5053261;28;20238;-81
2023/07/07 07:00:47;;;;;;;4.30;3.13;;;;;;;25.96;41.61;98378.25;5053000;28;20239;-81
2023/07/07 07:03:14;;;;;;;5.22;3.80;;;;;;;26.07;41.82;98380.44;5053435;28;20234;-81
2023/07/07 07:05:41;;;;;;;4.85;3.42;;;;;;;25.99;42.47;98380.59;5052897;28;20219;-81
2023/07/07 07:08:08;;;;;;;4.13;3.20;;;;;;;25.98;42.24;98387.03;5052859;28;20211;-81
2023/07/07 07:10:36;;;;;;;4.13;3.20;;;;;;;25.76;42.04;98388.06;5052811;28;20215;-80
2023/07/07 07:13:02;;;;;;;5.43;3.40;;;;;;;25.27;42.66;98379.06;5053094;28;20565;-81
2023/07/07 07:15:29;;;;;;;4.43;3.53;;;;;;;24.85;43.37;98380.78;5053034;28;20210;-82
2023/07/07 07:17:56;;;;;;;3.97;3.10;;;;;;;24.23;44.81;98393.88;5052816;28;20204;-81
2023/07/07 07:20:22;;;;;;;4.68;3.50;;;;;;;23.73;46.96;98422.50;5051847;28;20587;-80
2023/07/07 07:22:49;;;;;;;6.67;3.40;;;;;;;23.15;46.52;98412.25;5052749;28;20228;-81
2023/07/07 07:25:16;;;;;;;5.03;3.50;;;;;;;23.09;47.07;98417.50;5054361;28;20211;-82
2023/07/07 07:27:44;;;;;;;4.23;3.40;;;;;;;22.98;47.35;98410.66;5054467;28;20261;-81
2023/07/07 07:30:14;;;;;;;5.30;3.53;;;;;;;22.88;48.25;98426.22;5053924;28;20219;-81
2023/07/07 07:32:40;;;;;;;5.57;4.00;;;;;;;22.81;47.54;98413.63;5052630;28;20388;-82
2023/07/07 07:35:07;;;;;;;7.17;3.70;;;;;;;22.91;48.95;98428.56;5052542;28;20216;-81
2023/07/07 07:37:34;;;;;;;4.77;3.70;;;;;;;22.99;47.51;98417.72;5052468;28;20200;-82
2023/07/07 07:40:00;;;;;;;4.60;3.60;;;;;;;23.03;47.70;98424.44;5051399;28;20315;-82
2023/07/07 07:42:27;;;;;;;4.63;3.60;;;;;;;23.04;47.96;98425.28;5051797;28;20243;-80
2023/07/07 07:44:55;;;;;;;5.50;4.23;;;;;;;23.11;48.59;98431.66;5052693;28;20211;-82
2023/07/07 07:47:22;;;;;;;5.17;3.80;;;;;;;23.12;47.92;98426.09;5051988;28;20215;-81
2023/07/07 07:49:49;;;;;;;5.13;3.80;;;;;;;23.13;48.35;98426.91;5051754;28;20211;-82
2023/07/07 07:52:15;;;;;;;6.20;3.70;;;;;;;23.22;48.54;98424.03;5052099;28;20231;-81
2023/07/07 07:54:42;;;;;;;5.00;3.77;;;;;;;23.30;47.17;98407.81;5052192;28;20211;-81
2023/07/07 07:57:10;;;;;;;4.77;4.10;;;;;;;23.35;47.46;98413.47;5052092;28;20596;-81
2023/07/07 07:59:36;;;;;;;5.90;3.97;;;;;;;23.42;47.36;98409.03;5051519;28;20232;-81
2023/07/07 08:02:05;;;;;;;4.30;3.83;;;;;;;23.53;47.07;98414.03;5051722;28;20356;-81
2023/07/07 08:04:31;;;;;;;6.30;4.03;;;;;;;23.67;47.64;98417.81;5051623;28;20219;-81
2023/07/07 08:06:58;;;;;;;4.47;3.60;;;;;;;23.76;47.55;98417.56;5051599;28;20212;-82
2023/07/07 08:09:24;;;;;;;6.47;4.23;;;;;;;23.91;48.24;98415.78;5051262;28;20679;-81
2023/07/07 08:12:00;;;;;;;4.90;4.10;;;;;;;24.10;46.00;98403.63;5051618;28;20243;-81
2023/07/07 08:14:31;;;;;;;5.53;4.20;;;;;;;24.06;45.86;98403.16;5051836;28;20705;-81
2023/07/07 08:17:02;;;;;;;6.13;4.00;;;;;;;24.15;46.30;98407.44;5051614;28;20258;-81
2023/07/07 08:19:31;;;;;;;4.10;3.70;;;;;;;24.36;46.80;98412.97;5051018;28;20706;-81
2023/07/07 08:21:58;;;;;;;5.18;3.65;;;;;;;24.47;47.04;98417.06;5051537;28;20242;-81
2023/07/07 08:24:26;;;;;;;4.60;3.63;;;;;;;24.58;46.00;98405.81;5051573;28;20630;-81
2023/07/07 08:26:52;;;;;;;6.43;3.60;;;;;;;24.61;45.74;98398.19;5051439;28;20208;-82
2023/07/07 08:29:19;;;;;;;5.55;3.95;;;;;;;24.78;46.46;98415.88;5050954;28;20204;-81
2023/07/07 08:31:45;;;;;;;4.80;3.87;;;;;;;24.95;45.57;98411.94;5050964;28;20231;-81
2023/07/07 08:34:12;;;;;;;5.53;3.90;;;;;;;24.98;45.64;98411.56;5051298;28;20219;-81
2023/07/07 08:36:42;;;;;;;5.35;4.10;;;;;;;25.02;45.73;98412.00;5051558;28;20208;-81
2023/07/07 08:39:12;;;;;;;4.75;3.45;;;;;;;25.20;46.60;98426.81;5051033;28;20232;-80
2023/07/07 08:41:44;;;;;;;5.72;4.60;;;;;;;25.33;45.40;98404.50;5051305;28;20335;-82
2023/07/07 08:44:15;;;;;;;4.15;3.65;;;;;;;25.43;45.13;98407.72;5051293;28;20597;-81
2023/07/07 08:46:52;;;;;;;4.72;3.83;;;;;;;25.52;45.06;98403.84;5051414;28;20219;-81
2023/07/07 08:49:24;;;;;;;4.05;3.60;;;;;;;25.67;45.17;98405.47;5050962;28;20235;-82
2023/07/07 08:52:04;;;;;;;5.68;3.83;;;;;;;25.86;44.18;98396.72;5051069;28;20602;-81
2023/07/07 08:54:41;;;;;;;4.93;4.43;;;;;;;26.10;44.01;98400.88;5051570;28;20218;-83
2023/07/07 08:57:10;;;;;;;5.53;4.30;;;;;;;26.09;43.86;98396.50;5051249;28;20212;-82
2023/07/07 08:59:47;;;;;;;5.65;4.47;;;;;;;26.16;43.66;98398.22;5050852;28;20231;-81
2023/07/07 09:02:26;;;;;;;4.53;3.80;;;;;;;26.27;43.19;98396.84;5050864;28;20235;-81
2023/07/07 09:05:03;;;;;;;5.10;3.90;;;;;;;26.50;42.89;98391.97;5061037;28;20226;-80
2023/07/07 09:07:45;;;;;;;4.80;4.30;;;;;;;26.57;42.87;98392.91;5069726;28;20212;-80
2023/07/07 09:10:35;;;;;;;4.53;3.55;;;;;;;26.79;42.09;98379.03;5069673;28;20220;-79
2023/07/07 09:13:07;;;;;;;5.72;4.30;;;;;;;26.72;41.64;98367.31;5083329;22;20741;-89
2023/07/07 09:15:38;;;;;;;5.65;4.13;;;;;;;26.84;41.97;98379.28;5070805;28;20218;-91
2023/07/07 09:18:15;;;;;;;4.90;3.78;;;;;;;26.98;41.72;98382.84;5071021;28;20207;-90
2023/07/07 09:20:44;;;;;;;5.38;3.90;;;;;;;27.13;40.04;98358.06;5070556;28;20210;-89
2023/07/07 09:23:16;;;;;;;5.18;4.20;;;;;;;27.33;39.27;98356.28;5070708;28;20735;-90
2023/07/07 09:25:48;;;;;;;5.40;4.65;;;;;;;27.29;38.87;98348.75;5070969;28;20573;-89
2023/07/07 09:28:16;;;;;;;4.53;3.88;;;;;;;27.39;39.08;98351.91;5070751;28;20211;-89
2023/07/07 09:30:46;;;;;;;4.95;4.07;;;;;;;27.52;38.74;98338.34;5070428;28;20227;-90
2023/07/07 09:33:15;;;;;;;5.13;4.63;;;;;;;27.71;38.63;98340.25;5070844;28;20257;-89
2023/07/07 09:35:49;;;;;;;5.70;4.30;;;;;;;27.77;38.90;98342.16;5070635;28;20211;-90
2023/07/07 09:38:27;;;;;;;6.40;4.45;;;;;;;28.02;38.01;98326.88;5070457;28;20214;-89
2023/07/07 09:41:04;;;;;;;6.60;4.53;;;;;;;28.06;37.91;98325.44;5070658;28;20226;-89
2023/07/07 09:43:40;;;;;;;6.80;4.95;;;;;;;28.00;37.30;98323.56;5072517;28;20670;-90
2023/07/07 09:46:16;;;;;;;7.15;5.07;;;;;;;27.93;38.09;98319.97;5074362;28;20203;-90
2023/07/07 09:48:55;;;;;;;5.53;4.47;;;;;;;27.98;37.24;98312.03;5074596;28;20217;-89
2023/07/07 09:51:35;;;;;;;5.43;4.65;;;;;;;28.07;36.73;98305.34;5074109;28;20235;-90
2023/07/07 09:54:03;;;;;;;5.07;4.47;;;;;;;28.28;35.03;98294.19;5074530;28;20222;-90
2023/07/07 09:56:39;;;;;;;6.13;5.20;;;;;;;28.48;34.08;98293.13;5074316;28;20207;-89
2023/07/07 09:59:11;;;;;;;6.72;4.95;;;;;;;28.60;33.61;98312.31;5073760;28;20215;-89
2023/07/07 10:01:41;;;;;;;7.07;5.70;;;;;;;28.60;33.67;98306.88;5074080;28;20375;-89
2023/07/07 10:04:14;;;;;;;6.50;5.53;;;;;;;28.71;33.82;98315.22;5074009;28;20207;-89
2023/07/07 10:06:47;;;;;;;9.13;5.20;;;;;;;28.82;33.03;98300.94;5074059;28;20218;-90
2023/07/07 10:09:16;;;;;;;7.53;5.55;;;;;;;28.77;31.93;98291.75;5073592;28;20334;-90
2023/07/07 10:11:44;;;;;;;6.15;5.18;;;;;;;28.84;32.87;98301.56;5073671;28;20243;-89
2023/07/07 10:14:14;;;;;;;6.53;5.10;;;;;;;29.00;32.00;98287.47;5073899;28;20203;-90
2023/07/07 10:16:51;;;;;;;7.80;5.35;;;;;;;28.93;32.14;98297.50;5073887;28;20592;-90
2023/07/07 10:19:19;;;;;;;6.03;4.97;;;;;;;28.85;31.89;98278.72;5073551;28;20199;-90
2023/07/07 10:21:45;;;;;;;6.22;5.15;;;;;;;28.87;33.49;98303.00;5073437;28;20243;-89
2023/07/07 10:24:13;;;;;;;8.50;5.97;;;;;;;29.03;32.36;98295.19;5073720;28;20203;-90
2023/07/07 10:26:47;;;;;;;6.18;5.55;;;;;;;29.18;32.33;98282.13;5073696;28;20203;-89
2023/07/07 10:29:17;;;;;;;6.53;5.20;;;;;;;29.35;31.93;98285.16;5073702;28;20588;-88
2023/07/07 10:31:46;;;;;;;7.07;5.80;;;;;;;29.40;31.87;98279.88;5073769;28;20238;-89
2023/07/07 10:34:26;;;;;;;6.70;5.90;;;;;;;29.51;31.38;98274.53;5073608;28;20215;-89
2023/07/07 10:36:54;;;;;;;8.98;6.93;;;;;;;29.52;31.09;98280.84;5073899;28;20471;-90
2023/07/07 10:39:23;;;;;;;8.38;6.85;;;;;;;29.56;31.67;98276.63;5072952;28;20200;-90
2023/07/07 10:41:51;;;;;;;7.72;6.10;;;;;;;29.55;31.84;98291.31;5073237;28;20599;-89
2023/07/07 10:44:17;;;;;;;10.65;7.18;;;;;;;29.64;32.14;98292.72;5073302;28;20213;-90
2023/07/07 10:46:44;;;;;;;10.65;7.45;;;;;;;29.83;30.56;98283.53;5073351;28;20215;-90
2023/07/07 10:49:16;;;;;;;7.63;5.90;;;;;;;29.89;31.87;98288.09;5073019;28;20222;-89
2023/07/07 10:51:59;;;;;;;8.13;6.15;;;;;;;29.91;32.15;98296.88;5072965;28;20237;-88
2023/07/07 10:54:34;;;;;;;8.82;6.90;;;;;;;30.08;31.84;98292.50;5072850;28;20215;-89
2023/07/07 10:57:17;;;;;;;8.57;7.55;;;;;;;30.17;30.55;98281.13;5073273;28;20695;-88
2023/07/07 11:00:07;;;;;;;9.18;7.30;;;;;;;30.16;30.22;98274.00;5072893;28;20207;-89
2023/07/07 11:03:02;;;;;;;8.43;7.18;;;;;;;30.12;31.13;98289.13;5073146;28;20238;-89
2023/07/07 11:05:39;;;;;;;8.85;7.10;;;;;;;30.08;30.55;98281.59;5073054;28;20207;-89
2023/07/07 11:08:22;;;;;;;8.00;6.95;;;;;;;29.85;31.78;98270.50;5073355;28;20622;-88
2023/07/07 11:11:02;;;;;;;7.90;6.82;;;;;;;29.98;32.09;98287.56;5072918;28;20231;-89
2023/07/07 11:13:51;;;;;;;10.18;6.93;;;;;;;30.14;32.29;98289.72;5073112;28;20211;-88
2023/07/07 11:16:26;;;;;;;8.27;6.40;;;;;;;30.14;31.28;98276.09;5070844;28;20211;-89
2023/07/07 11:19:08;;;;;;;8.60;6.93;;;;;;;30.20;32.04;98279.84;5073502;28;20202;-91
2023/07/07 11:21:45;;;;;;;8.65;6.50;;;;;;;30.22;31.27;98274.97;5077050;28;20227;-90
2023/07/07 11:24:14;;;;;;;7.85;6.45;;;;;;;30.24;31.55;98270.13;5082224;28;20642;-88
2023/07/07 11:26:53;;;;;;;9.20;6.88;;;;;;;30.29;30.82;98264.81;5080747;28;20207;-90
2023/07/07 11:29:32;;;;;;;8.05;6.43;;;;;;;30.20;29.88;98252.56;5077230;28;20213;-89
2023/07/07 11:32:11;;;;;;;8.90;7.03;;;;;;;30.23;30.59;98254.81;5072888;28;20231;-89
2023/07/07 11:35:08;;;;;;;8.43;6.80;;;;;;;30.23;29.26;98242.03;5072754;28;20233;-90
2023/07/07 11:37:52;;;;;;;8.52;6.75;;;;;;;30.30;30.63;98244.66;5071234;28;20215;-89
2023/07/07 11:40:40;;;;;;;9.57;7.07;;;;;;;30.46;30.58;98258.56;5072211;28;20290;-90
2023/07/07 11:43:26;;;;;;;9.82;7.45;;;;;;;30.49;29.90;98246.31;5072222;28;20234;-90
2023/07/07 11:46:12;;;;;;;9.40;6.68;;;;;;;30.53;29.06;98237.47;5076452;28;20233;-89